Time,TemperatureF,DewpointF,PressureIn,WindDirection,WindDirectionDegrees,WindSpeedMPH,WindSpeedGustMPH,Humidity,HourlyPrecipIn,Conditions,Clouds,dailyrainin,SoftwareType,DateUTC
2013-05-23 00:02:00,62.4,61.5,29.70,South,180,0.0,-999.0,97,-99.99,,,0.00,Acu-Link.com,2013-05-23 04:02:00,
2013-05-23 00:17:00,62.6,61.7,29.68,West,270,0.0,-999.0,97,-99.99,,,0.03,Acu-Link.com,2013-05-23 04:17:00,
2013-05-23 00:32:00,62.8,61.9,29.70,WSW,247,0.0,-999.0,97,-99.99,,,0.05,Acu-Link.com,2013-05-23 04:32:00,
2013-05-23 00:47:00,63.1,62.2,29.71,SW,225,0.0,-999.0,97,-99.99,,,0.05,Acu-Link.com,2013-05-23 04:47:00,
2013-05-23 01:02:00,62.8,61.9,29.71,SW,225,0.0,-999.0,97,-99.99,,,0.05,Acu-Link.com,2013-05-23 05:02:00,
2013-05-23 01:17:00,62.4,61.5,29.70,WSW,247,3.2,-999.0,97,-99.99,,,0.05,Acu-Link.com,2013-05-23 05:17:00,
2013-05-23 01:33:00,62.4,61.5,29.70,SSW,202,0.0,-999.0,97,-99.99,,,0.07,Acu-Link.com,2013-05-23 05:33:00,
2013-05-23 01:48:00,62.8,61.9,29.71,SSW,202,0.0,-999.0,97,-99.99,,,0.15,Acu-Link.com,2013-05-23 05:48:00,
2013-05-23 02:03:00,62.2,61.3,29.70,ESE,112,0.0,-999.0,97,-99.99,,,0.22,Acu-Link.com,2013-05-23 06:03:00,
2013-05-23 02:18:00,62.1,61.2,29.70,East,90,0.0,-999.0,97,-99.99,,,0.23,Acu-Link.com,2013-05-23 06:18:00,
2013-05-23 02:33:00,62.1,61.5,29.70,East,90,0.0,-999.0,98,-99.99,,,0.23,Acu-Link.com,2013-05-23 06:33:00,
2013-05-23 02:48:00,61.9,61.3,29.69,East,90,0.0,-999.0,98,-99.99,,,0.26,Acu-Link.com,2013-05-23 06:48:00,
2013-05-23 03:03:00,62.1,61.5,29.69,East,90,0.0,-999.0,98,-99.99,,,0.27,Acu-Link.com,2013-05-23 07:03:00,
2013-05-23 03:18:00,62.1,61.5,29.69,East,90,0.0,-999.0,98,-99.99,,,0.27,Acu-Link.com,2013-05-23 07:18:00,
2013-05-23 03:33:00,62.2,61.6,29.69,East,90,0.0,-999.0,98,-99.99,,,0.27,Acu-Link.com,2013-05-23 07:33:00,
2013-05-23 03:49:00,62.4,61.8,29.70,SSW,202,0.0,-999.0,98,-99.99,,,0.27,Acu-Link.com,2013-05-23 07:49:00,
2013-05-23 04:04:00,62.4,61.8,29.70,SSW,202,0.0,-999.0,98,-99.99,,,0.27,Acu-Link.com,2013-05-23 08:04:00,
2013-05-23 04:19:00,62.4,61.8,29.70,SSW,202,0.0,-999.0,98,-99.99,,,0.27,Acu-Link.com,2013-05-23 08:19:00,
2013-05-23 04:35:00,62.4,61.8,29.69,SSW,202,0.0,-999.0,98,-99.99,,,0.28,Acu-Link.com,2013-05-23 08:35:00,
2013-05-23 04:50:00,62.4,61.8,29.68,SSW,202,0.0,-999.0,98,-99.99,,,0.29,Acu-Link.com,2013-05-23 08:50:00,
2013-05-23 05:05:00,62.4,61.8,29.69,SSW,202,0.0,-999.0,98,-99.99,,,0.30,Acu-Link.com,2013-05-23 09:05:00,
2013-05-23 05:20:00,63.0,62.4,29.69,SSW,202,0.0,-999.0,98,-99.99,,,0.32,Acu-Link.com,2013-05-23 09:20:00,
2013-05-23 05:35:00,62.8,62.2,29.69,SSW,202,0.0,-999.0,98,-99.99,,,0.32,Acu-Link.com,2013-05-23 09:35:00,
2013-05-23 05:51:00,62.8,62.2,29.69,SSW,202,0.0,-999.0,98,-99.99,,,0.33,Acu-Link.com,2013-05-23 09:51:00,
2013-05-23 06:06:00,62.8,62.2,29.68,SSW,202,0.0,-999.0,98,-99.99,,,0.33,Acu-Link.com,2013-05-23 10:06:00,
2013-05-23 06:21:00,62.8,62.2,29.68,SSW,202,0.0,-999.0,98,-99.99,,,0.33,Acu-Link.com,2013-05-23 10:21:00,
2013-05-23 06:36:00,63.0,62.4,29.69,SSW,202,1.7,-999.0,98,-99.99,,,0.33,Acu-Link.com,2013-05-23 10:36:00,
2013-05-23 06:51:00,63.0,62.4,29.69,SSW,202,0.0,-999.0,98,-99.99,,,0.33,Acu-Link.com,2013-05-23 10:51:00,
2013-05-23 07:06:00,63.0,62.4,29.69,SSW,202,0.0,-999.0,98,-99.99,,,0.33,Acu-Link.com,2013-05-23 11:06:00,
2013-05-23 07:21:00,63.0,62.4,29.70,SSW,202,0.0,-999.0,98,-99.99,,,0.33,Acu-Link.com,2013-05-23 11:21:00,
2013-05-23 07:36:00,63.1,62.5,29.70,SSW,202,0.0,-999.0,98,-99.99,,,0.33,Acu-Link.com,2013-05-23 11:36:00,
2013-05-23 07:51:00,63.3,62.7,29.70,SSW,202,0.0,-999.0,98,-99.99,,,0.33,Acu-Link.com,2013-05-23 11:51:00,
2013-05-23 08:07:00,63.5,62.9,29.70,SSW,202,0.0,-999.0,98,-99.99,,,0.33,Acu-Link.com,2013-05-23 12:07:00,
2013-05-23 08:22:00,63.9,63.3,29.70,SSW,202,0.0,-999.0,98,-99.99,,,0.33,Acu-Link.com,2013-05-23 12:22:00,
2013-05-23 08:37:00,64.4,63.8,29.70,SSW,202,1.7,-999.0,98,-99.99,,,0.33,Acu-Link.com,2013-05-23 12:37:00,
2013-05-23 08:52:00,64.6,64.0,29.70,SSW,202,0.0,-999.0,98,-99.99,,,0.33,Acu-Link.com,2013-05-23 12:52:00,
2013-05-23 09:07:00,65.1,64.5,29.70,West,270,0.0,-999.0,98,-99.99,,,0.33,Acu-Link.com,2013-05-23 13:07:00,
2013-05-23 09:22:00,65.1,64.5,29.70,WNW,292,1.7,-999.0,98,-99.99,,,0.33,Acu-Link.com,2013-05-23 13:22:00,
2013-05-23 09:37:00,65.5,64.9,29.70,WSW,247,0.0,-999.0,98,-99.99,,,0.33,Acu-Link.com,2013-05-23 13:37:00,
2013-05-23 09:52:00,65.8,65.2,29.70,West,270,1.7,-999.0,98,-99.99,,,0.33,Acu-Link.com,2013-05-23 13:52:00,
2013-05-23 10:07:00,66.4,65.8,29.70,SW,225,2.2,-999.0,98,-99.99,,,0.33,Acu-Link.com,2013-05-23 14:07:00,
2013-05-23 10:23:00,66.4,65.8,29.70,WNW,292,0.0,-999.0,98,-99.99,,,0.33,Acu-Link.com,2013-05-23 14:23:00,
2013-05-23 10:38:00,66.9,66.3,29.69,WSW,247,2.2,-999.0,98,-99.99,,,0.33,Acu-Link.com,2013-05-23 14:38:00,
2013-05-23 10:53:00,67.5,66.3,29.70,West,270,1.7,-999.0,96,-99.99,,,0.33,Acu-Link.com,2013-05-23 14:53:00,
2013-05-23 11:08:00,68.0,66.5,29.70,NE,45,0.0,-999.0,95,-99.99,,,0.33,Acu-Link.com,2013-05-23 15:08:00,
2013-05-23 11:23:00,68.7,66.9,29.70,West,270,0.0,-999.0,94,-99.99,,,0.33,Acu-Link.com,2013-05-23 15:23:00,
2013-05-23 11:38:00,68.7,66.6,29.70,West,270,1.7,-999.0,93,-99.99,,,0.33,Acu-Link.com,2013-05-23 15:38:00,
2013-05-23 11:53:00,69.8,67.4,29.69,West,270,0.0,-999.0,92,-99.99,,,0.33,Acu-Link.com,2013-05-23 15:53:00,
2013-05-23 12:08:00,70.2,67.8,29.69,West,270,1.1,-999.0,92,-99.99,,,0.33,Acu-Link.com,2013-05-23 16:08:00,
2013-05-23 12:23:00,71.1,67.7,29.69,NW,315,0.0,-999.0,89,-99.99,,,0.33,Acu-Link.com,2013-05-23 16:23:00,
2013-05-23 12:39:00,71.4,68.3,29.68,South,180,0.0,-999.0,90,-99.99,,,0.33,Acu-Link.com,2013-05-23 16:39:00,
2013-05-23 12:54:00,72.1,68.0,29.68,SW,225,1.7,-999.0,87,-99.99,,,0.33,Acu-Link.com,2013-05-23 16:54:00,
2013-05-23 13:09:00,72.3,67.5,29.67,West,270,1.7,-999.0,85,-99.99,,,0.33,Acu-Link.com,2013-05-23 17:09:00,
2013-05-23 13:24:00,73.8,69.0,29.67,NNE,22,1.1,-999.0,85,-99.99,,,0.33,Acu-Link.com,2013-05-23 17:24:00,
2013-05-23 13:39:00,74.7,69.9,29.67,WSW,247,1.7,-999.0,85,-99.99,,,0.33,Acu-Link.com,2013-05-23 17:39:00,
2013-05-23 13:54:00,74.5,69.0,29.66,WSW,247,1.1,-999.0,83,-99.99,,,0.33,Acu-Link.com,2013-05-23 17:54:00,
2013-05-23 14:09:00,76.6,69.2,29.65,SW,225,2.7,-999.0,78,-99.99,,,0.33,Acu-Link.com,2013-05-23 18:09:00,
2013-05-23 14:24:00,75.9,68.9,29.64,ESE,112,1.7,-999.0,79,-99.99,,,0.33,Acu-Link.com,2013-05-23 18:24:00,
2013-05-23 14:39:00,77.4,69.2,29.64,West,270,2.2,-999.0,76,-99.99,,,0.33,Acu-Link.com,2013-05-23 18:39:00,
2013-05-23 14:55:00,77.7,69.5,29.63,WNW,292,2.2,-999.0,76,-99.99,,,0.33,Acu-Link.com,2013-05-23 18:55:00,
2013-05-23 15:10:00,79.0,67.1,29.63,NNW,337,2.2,-999.0,67,-99.99,,,0.33,Acu-Link.com,2013-05-23 19:10:00,
2013-05-23 15:25:00,80.2,68.2,29.62,North,0,2.2,-999.0,67,-99.99,,,0.33,Acu-Link.com,2013-05-23 19:25:00,
2013-05-23 15:40:00,80.4,68.4,29.62,West,270,3.2,-999.0,67,-99.99,,,0.33,Acu-Link.com,2013-05-23 19:40:00,
2013-05-23 15:55:00,81.1,67.3,29.62,West,270,1.7,-999.0,63,-99.99,,,0.33,Acu-Link.com,2013-05-23 19:55:00,
2013-05-23 16:10:00,80.4,68.4,29.61,WSW,247,1.7,-999.0,67,-99.99,,,0.33,Acu-Link.com,2013-05-23 20:10:00,
2013-05-23 16:26:00,82.8,64.4,29.60,SW,225,2.7,-999.0,54,-99.99,,,0.33,Acu-Link.com,2013-05-23 20:26:00,
2013-05-23 16:41:00,82.4,64.1,29.60,WNW,292,2.7,-999.0,54,-99.99,,,0.33,Acu-Link.com,2013-05-23 20:41:00,
2013-05-23 16:56:00,82.2,65.9,29.60,ENE,67,2.2,-999.0,58,-99.99,,,0.33,Acu-Link.com,2013-05-23 20:56:00,
2013-05-23 17:11:00,83.7,65.8,29.59,SW,225,2.7,-999.0,55,-99.99,,,0.33,Acu-Link.com,2013-05-23 21:11:00,
2013-05-23 17:26:00,83.7,63.1,29.59,West,270,2.2,-999.0,50,-99.99,,,0.33,Acu-Link.com,2013-05-23 21:26:00,
2013-05-23 17:41:00,84.2,63.5,29.58,SSW,202,1.7,-999.0,50,-99.99,,,0.33,Acu-Link.com,2013-05-23 21:41:00,
2013-05-23 17:56:00,82.9,65.0,29.58,West,270,0.0,-999.0,55,-99.99,,,0.33,Acu-Link.com,2013-05-23 21:56:00,
2013-05-23 18:12:00,81.3,64.1,29.57,NW,315,2.2,-999.0,56,-99.99,,,0.33,Acu-Link.com,2013-05-23 22:12:00,
2013-05-23 18:27:00,80.6,62.9,29.58,WNW,292,1.7,-999.0,55,-99.99,,,0.33,Acu-Link.com,2013-05-23 22:27:00,
2013-05-23 18:42:00,79.7,59.4,29.57,SW,225,0.0,-999.0,50,-99.99,,,0.33,Acu-Link.com,2013-05-23 22:42:00,
2013-05-23 18:57:00,79.2,60.6,29.57,NNE,22,0.0,-999.0,53,-99.99,,,0.33,Acu-Link.com,2013-05-23 22:57:00,
2013-05-23 19:12:00,78.8,60.2,29.57,WSW,247,2.7,-999.0,53,-99.99,,,0.33,Acu-Link.com,2013-05-23 23:12:00,
2013-05-23 19:27:00,78.4,60.9,29.57,WSW,247,0.0,-999.0,55,-99.99,,,0.33,Acu-Link.com,2013-05-23 23:27:00,
2013-05-23 19:42:00,77.5,59.5,29.58,ENE,67,0.0,-999.0,54,-99.99,,,0.33,Acu-Link.com,2013-05-23 23:42:00,
2013-05-23 19:57:00,76.6,60.2,29.58,SW,225,0.0,-999.0,57,-99.99,,,0.33,Acu-Link.com,2013-05-23 23:57:00,
2013-05-23 20:12:00,76.1,60.7,29.58,SW,225,0.0,-999.0,59,-99.99,,,0.33,Acu-Link.com,2013-05-24 00:12:00,
2013-05-23 20:28:00,75.4,61.0,29.58,SW,225,0.0,-999.0,61,-99.99,,,0.33,Acu-Link.com,2013-05-24 00:28:00,
2013-05-23 20:43:00,73.8,60.8,29.59,NE,45,0.0,-999.0,64,-99.99,,,0.33,Acu-Link.com,2013-05-24 00:43:00,
2013-05-23 20:58:00,72.5,60.5,29.60,NE,45,0.0,-999.0,66,-99.99,,,0.33,Acu-Link.com,2013-05-24 00:58:00,
2013-05-23 21:13:00,71.6,60.0,29.61,NNE,22,0.0,-999.0,67,-99.99,,,0.33,Acu-Link.com,2013-05-24 01:13:00,
2013-05-23 21:28:00,71.2,59.7,29.61,West,270,0.0,-999.0,67,-99.99,,,0.33,Acu-Link.com,2013-05-24 01:28:00,
2013-05-23 21:43:00,70.5,60.2,29.61,SW,225,0.0,-999.0,70,-99.99,,,0.33,Acu-Link.com,2013-05-24 01:43:00,
2013-05-23 21:58:00,70.0,59.8,29.62,NE,45,0.0,-999.0,70,-99.99,,,0.33,Acu-Link.com,2013-05-24 01:58:00,
2013-05-23 22:13:00,69.6,59.0,29.63,NE,45,0.0,-999.0,69,-99.99,,,0.33,Acu-Link.com,2013-05-24 02:13:00,
2013-05-23 22:28:00,70.0,58.5,29.65,ENE,67,1.1,-999.0,67,-99.99,,,0.33,Acu-Link.com,2013-05-24 02:28:00,
2013-05-23 22:43:00,70.0,57.7,29.66,SSE,157,0.0,-999.0,65,-99.99,,,0.33,Acu-Link.com,2013-05-24 02:43:00,
2013-05-23 22:59:00,69.8,59.2,29.65,NE,45,0.0,-999.0,69,-99.99,,,0.33,Acu-Link.com,2013-05-24 02:59:00,
2013-05-23 23:14:00,69.4,58.4,29.65,NE,45,0.0,-999.0,68,-99.99,,,0.33,Acu-Link.com,2013-05-24 03:14:00,
2013-05-23 23:29:00,68.7,59.3,29.65,NE,45,0.0,-999.0,72,-99.99,,,0.33,Acu-Link.com,2013-05-24 03:29:00,
2013-05-23 23:44:00,68.2,58.8,29.65,WNW,292,0.0,-999.0,72,-99.99,,,0.33,Acu-Link.com,2013-05-24 03:44:00,
2013-05-23 23:59:00,68.0,59.0,29.65,SSE,157,0.0,-999.0,73,-99.99,,,0.33,Acu-Link.com,2013-05-24 03:59:00,